createdAt,value
2018-12-30T00:01:16.887Z,21.33
2018-12-30T00:03:46.319Z,18.07
2018-12-30T00:06:16.354Z,18.80
2018-12-30T00:08:46.267Z,21.47
2018-12-30T00:11:15.778Z,16.40
2018-12-30T00:13:45.213Z,17.00
2018-12-30T00:16:14.678Z,25.57
2018-12-30T00:18:44.651Z,24.30
2018-12-30T00:21:14.600Z,29.00
2018-12-30T00:23:44.077Z,30.30
2018-12-30T00:26:13.513Z,29.20
2018-12-30T00:28:42.953Z,25.10
2018-12-30T00:31:12.427Z,24.83
2018-12-30T00:33:41.864Z,28.77
2018-12-30T00:36:11.335Z,25.03
2018-12-30T00:38:40.827Z,22.37
2018-12-30T00:41:10.313Z,18.17
2018-12-30T00:43:39.781Z,18.70
2018-12-30T00:46:09.324Z,26.27
2018-12-30T00:48:38.782Z,23.37
2018-12-30T00:51:08.222Z,27.07
2018-12-30T00:53:37.671Z,24.93
2018-12-30T00:56:07.499Z,25.73
2018-12-30T00:58:37.457Z,31.00
2018-12-30T01:01:06.998Z,33.50
2018-12-30T01:03:36.553Z,33.17
2018-12-30T01:06:05.989Z,31.37
2018-12-30T01:08:35.469Z,35.00
2018-12-30T01:11:05.473Z,43.53
2018-12-30T01:13:34.923Z,36.53
2018-12-30T01:16:04.411Z,37.23
2018-12-30T01:18:33.867Z,37.10
2018-12-30T01:21:03.302Z,35.93
2018-12-30T01:23:32.803Z,41.67
2018-12-30T01:26:21.314Z,38.13
2018-12-30T01:28:50.797Z,39.53
2018-12-30T01:31:20.228Z,38.57
2018-12-30T01:33:50.077Z,40.57
2018-12-30T01:36:19.590Z,36.07
2018-12-30T01:38:49.044Z,33.63
2018-12-30T01:41:18.480Z,32.87
2018-12-30T01:43:48.063Z,32.67
2018-12-30T01:46:17.762Z,28.43
2018-12-30T01:48:47.181Z,25.23
2018-12-30T01:51:16.700Z,29.57
2018-12-30T01:53:46.140Z,25.07
2018-12-30T01:56:15.592Z,27.93
2018-12-30T01:58:45.599Z,27.87
2018-12-30T02:01:15.072Z,26.23
2018-12-30T02:03:44.481Z,26.40
2018-12-30T02:06:13.963Z,27.00
2018-12-30T02:08:43.359Z,30.60
2018-12-30T02:11:13.295Z,25.20
2018-12-30T02:13:42.772Z,25.40
2018-12-30T02:16:12.164Z,19.03
2018-12-30T02:18:41.615Z,20.03
2018-12-30T02:21:11.162Z,15.73
2018-12-30T02:23:41.011Z,16.13
2018-12-30T02:26:10.410Z,20.47
2018-12-30T02:28:39.875Z,17.00
2018-12-30T02:31:09.335Z,16.53
2018-12-30T02:33:38.736Z,11.63
2018-12-30T02:36:08.205Z,14.30
2018-12-30T02:38:37.681Z,23.97
2018-12-30T02:41:07.166Z,27.63
2018-12-30T02:43:36.629Z,35.23
2018-12-30T02:46:06.032Z,14.03
2018-12-30T02:48:35.458Z,8.30
2018-12-30T02:51:04.963Z,9.13
2018-12-30T02:53:34.388Z,7.10
2018-12-30T02:56:03.790Z,9.63
2018-12-30T02:58:33.243Z,9.00
2018-12-30T03:01:02.658Z,7.97
2018-12-30T03:03:32.033Z,7.87
2018-12-30T03:06:01.472Z,8.90
2018-12-30T03:08:30.918Z,8.27
2018-12-30T03:11:00.754Z,9.67
2018-12-30T03:13:30.223Z,9.63
2018-12-30T03:15:59.618Z,10.33
2018-12-30T03:18:29.061Z,11.87
2018-12-30T03:20:58.526Z,11.37
2018-12-30T03:23:27.873Z,10.63
2018-12-30T03:25:57.235Z,9.73
2018-12-30T03:28:26.735Z,8.87
2018-12-30T03:30:56.118Z,11.07
2018-12-30T03:33:25.529Z,10.97
2018-12-30T03:35:54.946Z,15.37
2018-12-30T03:38:24.296Z,8.80
2018-12-30T03:40:53.691Z,64.47
2018-12-30T03:43:23.170Z,9.80
2018-12-30T03:45:52.612Z,14.40
2018-12-30T03:48:22.010Z,9.53
2018-12-30T03:50:51.479Z,10.30
2018-12-30T03:53:20.898Z,9.10
2018-12-30T03:55:50.351Z,9.40
2018-12-30T03:58:19.774Z,10.73
2018-12-30T04:00:49.198Z,10.07
2018-12-30T04:03:18.527Z,9.13
2018-12-30T04:05:47.974Z,9.03
2018-12-30T04:08:17.385Z,10.60
2018-12-30T04:10:46.948Z,12.60
2018-12-30T04:13:16.433Z,10.10
2018-12-30T04:15:45.824Z,9.80
2018-12-30T04:18:15.228Z,7.20
2018-12-30T04:20:44.725Z,8.40
2018-12-30T04:23:14.146Z,5.30
2018-12-30T04:25:43.600Z,8.33
2018-12-30T04:28:13.047Z,3.87
2018-12-30T04:30:42.502Z,4.83
2018-12-30T04:33:11.959Z,3.53
2018-12-30T04:35:41.488Z,4.30
2018-12-30T04:38:10.966Z,5.07
2018-12-30T04:40:40.421Z,17.33
2018-12-30T04:43:09.952Z,142.37
2018-12-30T04:45:39.419Z,41.97
2018-12-30T04:48:08.884Z,36.83
2018-12-30T04:50:39.916Z,26.37
2018-12-30T04:53:09.471Z,13.97
2018-12-30T04:55:38.892Z,16.80
2018-12-30T04:58:08.417Z,16.93
2018-12-30T05:00:37.830Z,18.70
2018-12-30T05:03:07.212Z,20.73
2018-12-30T05:05:36.706Z,32.47
2018-12-30T05:08:06.160Z,35.00
2018-12-30T05:10:35.543Z,18.00
2018-12-30T05:13:05.069Z,19.67
2018-12-30T05:15:34.623Z,17.73
2018-12-30T05:18:04.069Z,19.40
2018-12-30T05:20:33.450Z,17.57
2018-12-30T05:23:02.847Z,19.97
2018-12-30T05:25:32.189Z,17.37
2018-12-30T05:28:01.613Z,19.97
2018-12-30T05:30:31.025Z,27.47
2018-12-30T05:33:00.405Z,37.90
2018-12-30T05:35:29.825Z,34.57
2018-12-30T05:37:59.250Z,25.80
2018-12-30T05:40:28.629Z,24.47
2018-12-30T05:42:58.050Z,21.33
2018-12-30T05:45:27.530Z,15.00
2018-12-30T05:47:56.957Z,16.17
2018-12-30T05:50:26.382Z,136.17
2018-12-30T05:52:55.775Z,53.93
2018-12-30T05:55:25.141Z,41.67
2018-12-30T05:57:54.623Z,39.03
2018-12-30T06:00:23.984Z,34.63
2018-12-30T06:02:53.425Z,21.17
2018-12-30T06:05:22.926Z,22.80
2018-12-30T06:07:52.246Z,18.53
2018-12-30T06:10:21.561Z,19.43
2018-12-30T06:12:50.967Z,19.33
2018-12-30T06:15:20.364Z,12.70
2018-12-30T06:17:49.703Z,12.87
2018-12-30T06:20:19.081Z,10.97
2018-12-30T06:22:49.670Z,33.10
2018-12-30T06:25:19.322Z,30.40
2018-12-30T06:27:48.739Z,16.33
2018-12-30T06:30:18.084Z,16.73
2018-12-30T06:32:47.454Z,7.40
2018-12-30T06:35:16.886Z,6.37
2018-12-30T06:37:46.377Z,5.97
2018-12-30T06:40:15.852Z,4.40
2018-12-30T06:42:45.342Z,4.53
2018-12-30T06:45:14.796Z,4.80
2018-12-30T06:47:44.175Z,7.87
2018-12-30T06:50:13.594Z,5.90
2018-12-30T06:52:42.934Z,6.87
2018-12-30T06:55:12.315Z,5.60
2018-12-30T06:57:41.776Z,5.03
2018-12-30T07:00:11.104Z,5.07
2018-12-30T07:02:40.468Z,4.00
2018-12-30T07:05:10.060Z,4.63
2018-12-30T07:07:39.543Z,2.60
2018-12-30T07:10:08.931Z,3.00
2018-12-30T07:12:38.372Z,2.83
2018-12-30T07:15:07.805Z,4.97
2018-12-30T07:17:38.830Z,7.90
2018-12-30T07:20:08.692Z,6.37
2018-12-30T07:22:38.100Z,7.67
2018-12-30T07:25:07.523Z,5.17
2018-12-30T07:27:36.959Z,6.37
2018-12-30T07:30:06.603Z,9.60
2018-12-30T07:32:36.033Z,10.73
2018-12-30T07:35:05.558Z,10.83
2018-12-30T07:37:34.999Z,14.67
2018-12-30T07:40:04.570Z,20.77
2018-12-30T07:42:34.050Z,18.13
2018-12-30T07:45:03.499Z,18.67
2018-12-30T07:47:32.846Z,16.53
2018-12-30T07:50:02.292Z,18.87
2018-12-30T07:52:31.733Z,19.80
2018-12-30T07:55:01.126Z,27.13
2018-12-30T07:57:30.605Z,27.13
2018-12-30T07:59:59.975Z,29.73
2018-12-30T08:02:29.322Z,24.30
2018-12-30T08:04:58.813Z,19.90
2018-12-30T08:07:28.358Z,25.10
2018-12-30T08:09:57.808Z,29.97
2018-12-30T08:12:27.204Z,24.83
2018-12-30T08:14:56.541Z,18.47
2018-12-30T08:17:25.940Z,17.63
2018-12-30T08:19:55.513Z,21.57
2018-12-30T08:22:24.872Z,25.70
2018-12-30T08:24:54.311Z,19.43
2018-12-30T08:27:23.703Z,19.53
2018-12-30T08:29:53.063Z,22.17
2018-12-30T08:32:22.466Z,23.33
2018-12-30T08:34:51.885Z,28.13
2018-12-30T08:37:21.280Z,23.23
2018-12-30T08:39:50.633Z,24.37
2018-12-30T08:42:20.079Z,13.87
2018-12-30T08:44:49.554Z,5.83
2018-12-30T08:47:18.908Z,5.20
2018-12-30T08:49:48.376Z,7.80
2018-12-30T08:52:17.823Z,8.00
2018-12-30T08:54:47.193Z,10.67
2018-12-30T08:57:16.608Z,15.13
2018-12-30T08:59:46.028Z,16.30
2018-12-30T09:02:15.465Z,17.83
2018-12-30T09:04:44.873Z,22.00
2018-12-30T09:07:14.235Z,24.33
2018-12-30T09:09:43.770Z,24.43
2018-12-30T09:12:13.157Z,28.90
2018-12-30T09:14:42.537Z,39.93
2018-12-30T09:17:11.923Z,39.13
2018-12-30T09:19:41.409Z,29.17
2018-12-30T09:22:10.782Z,29.70
2018-12-30T09:24:40.221Z,28.70
2018-12-30T09:27:09.735Z,34.40
2018-12-30T09:29:39.173Z,31.50
2018-12-30T09:32:08.515Z,33.30
2018-12-30T09:34:38.011Z,30.00
2018-12-30T09:37:07.515Z,29.97
2018-12-30T09:39:36.887Z,29.53
2018-12-30T09:42:06.303Z,30.00
2018-12-30T09:44:35.653Z,52.60
2018-12-30T09:47:04.986Z,40.53
2018-12-30T09:49:34.375Z,33.00
2018-12-30T09:52:03.746Z,30.77
2018-12-30T09:54:33.087Z,30.30
2018-12-30T09:57:02.555Z,34.97
2018-12-30T09:59:31.935Z,39.83
2018-12-30T10:02:01.338Z,33.30
2018-12-30T10:04:30.771Z,36.17
2018-12-30T10:07:00.187Z,38.23
2018-12-30T10:09:29.578Z,33.53
2018-12-30T10:11:59.099Z,34.00
2018-12-30T10:14:28.535Z,31.87
2018-12-30T10:16:57.879Z,34.83
2018-12-30T10:19:27.310Z,31.87
2018-12-30T10:21:56.677Z,29.63
2018-12-30T10:24:26.112Z,27.80
2018-12-30T10:26:55.540Z,27.93
2018-12-30T10:29:25.015Z,32.80
2018-12-30T10:31:54.487Z,33.90
2018-12-30T10:34:24.013Z,29.80
2018-12-30T10:36:53.482Z,29.17
2018-12-30T10:39:22.901Z,26.63
2018-12-30T10:41:52.311Z,18.13
2018-12-30T10:44:21.711Z,16.90
2018-12-30T10:46:51.065Z,15.17
2018-12-30T10:49:20.543Z,12.97
2018-12-30T10:51:49.980Z,21.17
2018-12-30T10:54:19.340Z,17.23
2018-12-30T10:56:48.750Z,17.10
2018-12-30T10:59:18.164Z,16.67
2018-12-30T11:01:47.531Z,14.83
2018-12-30T11:04:17.011Z,12.73
2018-12-30T11:06:46.375Z,14.03
2018-12-30T11:09:15.805Z,21.70
2018-12-30T11:11:46.461Z,19.27
2018-12-30T11:14:15.833Z,17.50
2018-12-30T11:16:45.202Z,24.73
2018-12-30T11:19:16.313Z,17.17
2018-12-30T11:21:45.762Z,21.53
2018-12-30T11:24:15.181Z,17.80
2018-12-30T11:26:44.972Z,17.33
2018-12-30T11:29:14.420Z,12.00
2018-12-30T11:31:43.861Z,13.07
2018-12-30T11:34:13.274Z,12.40
2018-12-30T11:36:42.644Z,10.47
2018-12-30T11:39:12.060Z,10.27
2018-12-30T11:41:41.516Z,9.50
2018-12-30T11:44:10.853Z,8.13
2018-12-30T11:46:40.210Z,11.27
2018-12-30T11:49:09.588Z,12.13
2018-12-30T11:51:38.921Z,7.00
2018-12-30T11:54:08.276Z,7.07
2018-12-30T11:56:37.683Z,6.77
2018-12-30T11:59:07.098Z,6.50
2018-12-30T12:01:36.481Z,7.37
2018-12-30T12:04:05.929Z,7.07
2018-12-30T12:06:35.311Z,12.60
2018-12-30T12:09:07.269Z,6.17
2018-12-30T12:11:36.671Z,5.33
2018-12-30T12:14:06.187Z,4.67
2018-12-30T12:16:35.605Z,4.27
2018-12-30T12:19:05.020Z,5.27
2018-12-30T12:21:34.434Z,10.00
2018-12-30T12:24:03.833Z,6.40
2018-12-30T12:26:33.256Z,6.23
2018-12-30T12:29:02.694Z,7.33
2018-12-30T12:31:32.114Z,7.97
2018-12-30T12:34:01.534Z,3.37
2018-12-30T12:36:30.908Z,4.50
2018-12-30T12:39:00.350Z,3.87
2018-12-30T12:41:29.779Z,4.43
2018-12-30T12:43:59.197Z,3.10
2018-12-30T12:46:28.656Z,3.87
2018-12-30T12:48:58.132Z,4.37
2018-12-30T12:51:27.473Z,2.90
2018-12-30T12:53:56.791Z,4.97
2018-12-30T12:56:26.510Z,4.13
2018-12-30T12:58:55.954Z,4.67
2018-12-30T13:01:25.411Z,4.67
2018-12-30T13:03:54.895Z,2.90
2018-12-30T13:06:24.310Z,3.47
2018-12-30T13:08:53.734Z,4.67
2018-12-30T13:11:23.241Z,2.50
2018-12-30T13:13:52.597Z,7.63
2018-12-30T13:16:22.079Z,16.97
2018-12-30T13:18:51.505Z,15.47
2018-12-30T13:21:20.878Z,6.37
2018-12-30T13:23:50.246Z,10.40
2018-12-30T13:26:19.676Z,8.10
2018-12-30T13:28:49.118Z,11.67
2018-12-30T13:31:18.465Z,11.67
2018-12-30T13:33:47.979Z,6.93
2018-12-30T13:36:18.383Z,6.93
2018-12-30T13:38:47.749Z,9.60
2018-12-30T13:41:17.209Z,6.27
2018-12-30T13:43:46.611Z,4.33
2018-12-30T13:46:15.943Z,7.30
2018-12-30T13:48:45.353Z,4.40
2018-12-30T13:51:14.705Z,7.57
2018-12-30T13:53:44.163Z,6.50
2018-12-30T13:56:13.637Z,8.23
2018-12-30T13:58:42.986Z,5.07
2018-12-30T14:01:12.342Z,5.23
2018-12-30T14:03:41.842Z,6.57
2018-12-30T14:06:11.282Z,6.03
2018-12-30T14:08:40.667Z,3.27
2018-12-30T14:11:10.139Z,3.27
2018-12-30T14:13:39.592Z,3.83
2018-12-30T14:16:08.969Z,3.07
2018-12-30T14:18:38.513Z,3.30
2018-12-30T14:21:07.835Z,3.00
2018-12-30T14:23:37.177Z,5.87
2018-12-30T14:26:06.654Z,4.80
2018-12-30T14:28:36.114Z,7.53
2018-12-30T14:31:05.565Z,11.80
2018-12-30T14:33:34.966Z,4.57
2018-12-30T14:36:04.354Z,4.70
2018-12-30T14:38:33.741Z,7.73
2018-12-30T14:41:06.179Z,5.00
2018-12-30T14:43:35.556Z,6.07
2018-12-30T14:46:04.938Z,4.30
2018-12-30T14:48:34.434Z,4.90
2018-12-30T14:51:03.851Z,6.73
2018-12-30T14:53:33.316Z,4.97
2018-12-30T14:56:02.819Z,5.07
2018-12-30T14:58:32.234Z,10.80
2018-12-30T15:01:01.604Z,4.03
2018-12-30T15:03:31.016Z,6.60
2018-12-30T15:06:00.604Z,5.70
2018-12-30T15:08:30.035Z,29.23
2018-12-30T15:10:59.536Z,36.37
2018-12-30T15:13:29.004Z,31.63
2018-12-30T15:15:58.429Z,30.87
2018-12-30T15:18:28.959Z,35.13
2018-12-30T15:20:58.381Z,27.50
2018-12-30T15:23:27.732Z,34.17
2018-12-30T15:25:57.255Z,33.27
2018-12-30T15:28:26.653Z,33.00
2018-12-30T15:30:56.016Z,37.60
2018-12-30T15:33:25.504Z,41.90
2018-12-30T15:35:54.839Z,40.03
2018-12-30T15:38:24.268Z,46.53
2018-12-30T15:40:53.666Z,45.83
2018-12-30T15:43:23.036Z,46.37
2018-12-30T15:45:52.478Z,44.63
2018-12-30T15:48:21.921Z,47.30
2018-12-30T15:50:51.292Z,49.77
2018-12-30T15:53:20.715Z,49.73
2018-12-30T15:55:50.205Z,47.90
2018-12-30T15:58:19.582Z,50.53
2018-12-30T16:00:48.956Z,55.27
2018-12-30T16:03:18.729Z,57.20
2018-12-30T16:05:48.165Z,50.13
2018-12-30T16:08:17.611Z,54.93
2018-12-30T16:10:47.116Z,58.67
2018-12-30T16:13:16.560Z,82.33
2018-12-30T16:15:45.916Z,69.73
2018-12-30T16:18:15.431Z,78.60
2018-12-30T16:20:44.863Z,114.00
2018-12-30T16:23:14.232Z,91.93
2018-12-30T16:25:43.726Z,69.43
2018-12-30T16:28:13.057Z,64.00
2018-12-30T16:30:42.419Z,65.37
2018-12-30T16:33:11.845Z,56.40
2018-12-30T16:35:41.209Z,54.53
2018-12-30T16:38:10.572Z,55.63
2018-12-30T16:40:43.150Z,57.17
2018-12-30T16:43:17.865Z,67.57
2018-12-30T16:45:47.408Z,64.40
2018-12-30T16:48:16.853Z,89.87
2018-12-30T16:50:46.264Z,67.23
2018-12-30T16:53:15.765Z,65.20
2018-12-30T16:55:45.151Z,78.30
2018-12-30T16:58:14.586Z,68.17
2018-12-30T17:00:44.075Z,67.33
2018-12-30T17:03:13.459Z,78.47
2018-12-30T17:05:42.861Z,72.70
2018-12-30T17:08:12.374Z,67.77
2018-12-30T17:10:41.754Z,68.40
2018-12-30T17:13:11.182Z,78.53
2018-12-30T17:15:40.585Z,76.13
2018-12-30T17:18:10.005Z,63.33
2018-12-30T17:20:39.439Z,67.17
2018-12-30T17:23:11.974Z,66.67
2018-12-30T17:25:43.228Z,67.60
2018-12-30T17:28:12.398Z,69.47
2018-12-30T17:30:41.815Z,77.73
2018-12-30T17:33:11.234Z,82.50
2018-12-30T17:35:40.690Z,78.50
2018-12-30T17:38:10.221Z,76.63
2018-12-30T17:40:39.654Z,80.07
2018-12-30T17:43:09.071Z,76.90
2018-12-30T17:45:38.600Z,77.97
2018-12-30T17:48:07.981Z,81.47
2018-12-30T17:50:37.413Z,78.10
2018-12-30T17:53:06.851Z,70.40
2018-12-30T17:55:36.217Z,73.60
2018-12-30T17:58:05.590Z,68.93
2018-12-30T18:00:35.030Z,74.20
2018-12-30T18:03:04.408Z,83.73
2018-12-30T18:05:33.868Z,107.23
2018-12-30T18:08:03.238Z,111.43
2018-12-30T18:10:32.629Z,124.47
2018-12-30T18:13:01.954Z,126.53
2018-12-30T18:15:31.359Z,127.90
2018-12-30T18:18:00.776Z,132.90
2018-12-30T18:20:30.178Z,131.77
2018-12-30T18:22:59.682Z,108.47
2018-12-30T18:25:29.082Z,107.07
2018-12-30T18:27:58.472Z,105.90
2018-12-30T18:30:27.846Z,110.03
2018-12-30T18:32:57.219Z,86.73
2018-12-30T18:35:26.636Z,71.90
2018-12-30T18:37:56.069Z,57.87
2018-12-30T18:40:25.401Z,51.27
2018-12-30T18:42:54.768Z,64.97
2018-12-30T18:45:24.277Z,64.90
2018-12-30T18:47:53.668Z,69.77
2018-12-30T18:50:23.014Z,78.23
2018-12-30T18:52:52.437Z,72.23
2018-12-30T18:55:21.825Z,62.93
2018-12-30T18:57:51.204Z,82.77
2018-12-30T19:00:20.691Z,55.80
2018-12-30T19:02:50.158Z,41.47
2018-12-30T19:05:19.528Z,36.23
2018-12-30T19:07:49.009Z,33.27
2018-12-30T19:10:18.414Z,33.53
2018-12-30T19:12:47.745Z,31.60
2018-12-30T19:15:17.205Z,34.77
2018-12-30T19:17:46.692Z,37.80
2018-12-30T19:20:16.045Z,37.23
2018-12-30T19:22:46.699Z,32.00
2018-12-30T19:25:16.070Z,30.07
2018-12-30T19:27:45.513Z,30.83
2018-12-30T19:30:14.991Z,30.40
2018-12-30T19:32:44.431Z,29.40
2018-12-30T19:35:13.866Z,35.63
2018-12-30T19:37:43.319Z,33.37
2018-12-30T19:40:12.699Z,44.13
2018-12-30T19:42:42.121Z,31.73
2018-12-30T19:45:11.629Z,24.67
2018-12-30T19:47:40.971Z,26.97
2018-12-30T19:50:10.358Z,28.77
2018-12-30T19:52:40.106Z,23.57
2018-12-30T19:55:09.451Z,25.73
2018-12-30T19:57:38.908Z,20.10
2018-12-30T20:00:10.459Z,22.73
2018-12-30T20:02:39.890Z,22.47
2018-12-30T20:05:09.331Z,30.80
2018-12-30T20:07:38.738Z,50.63
2018-12-30T20:10:08.528Z,43.70
2018-12-30T20:12:37.906Z,36.90
2018-12-30T20:15:07.629Z,29.63
2018-12-30T20:17:37.083Z,19.03
2018-12-30T20:20:07.156Z,21.67
2018-12-30T20:22:36.663Z,19.53
2018-12-30T20:25:06.194Z,12.17
2018-12-30T20:27:35.637Z,12.17
2018-12-30T20:30:05.984Z,17.17
2018-12-30T20:32:35.426Z,19.33
2018-12-30T20:35:04.968Z,16.07
2018-12-30T20:37:34.372Z,15.27
2018-12-30T20:40:03.922Z,17.40
2018-12-30T20:42:33.279Z,23.73
2018-12-30T20:45:05.846Z,26.77
2018-12-30T20:47:35.190Z,18.33
2018-12-30T20:50:23.725Z,21.50
2018-12-30T20:52:53.070Z,22.13
2018-12-30T20:55:22.395Z,16.47
2018-12-30T20:57:51.859Z,26.67
2018-12-30T21:00:21.324Z,23.00
2018-12-30T21:02:50.791Z,21.23
2018-12-30T21:05:20.335Z,22.63
2018-12-30T21:07:49.765Z,16.80
2018-12-30T21:10:19.205Z,14.27
2018-12-30T21:12:48.578Z,9.93
2018-12-30T21:15:17.961Z,11.50
2018-12-30T21:17:47.397Z,11.73
2018-12-30T21:20:19.998Z,11.30
2018-12-30T21:22:49.415Z,9.07
2018-12-30T21:25:19.909Z,27.33
2018-12-30T21:27:49.341Z,43.80
2018-12-30T21:30:18.716Z,52.97
2018-12-30T21:32:48.143Z,24.07
2018-12-30T21:35:36.682Z,17.67
2018-12-30T21:38:06.144Z,19.63
2018-12-30T21:40:35.565Z,22.30
2018-12-30T21:43:05.043Z,15.20
2018-12-30T21:45:34.451Z,40.90
2018-12-30T21:48:03.793Z,18.00
2018-12-30T21:50:33.222Z,20.17
2018-12-30T21:53:02.601Z,17.27
2018-12-30T21:55:32.083Z,19.23
2018-12-30T21:58:01.534Z,20.67
2018-12-30T22:00:30.967Z,18.27
2018-12-30T22:03:00.402Z,13.80
2018-12-30T22:05:29.926Z,11.50
2018-12-30T22:07:59.293Z,13.83
2018-12-30T22:10:28.680Z,10.70
2018-12-30T22:12:58.166Z,12.43
2018-12-30T22:15:28.407Z,13.17
2018-12-30T22:17:57.852Z,14.07
2018-12-30T22:20:27.377Z,14.17
2018-12-30T22:22:56.828Z,16.90
2018-12-30T22:25:26.304Z,14.93
2018-12-30T22:27:56.856Z,14.67
2018-12-30T22:30:26.337Z,12.83
2018-12-30T22:32:55.775Z,24.20
2018-12-30T22:35:25.246Z,23.50
2018-12-30T22:37:54.601Z,15.33
2018-12-30T22:40:24.030Z,24.53
2018-12-30T22:42:53.449Z,40.13
2018-12-30T22:45:22.782Z,29.30
2018-12-30T22:47:52.193Z,34.27
2018-12-30T22:50:21.636Z,35.93
2018-12-30T22:52:51.030Z,25.87
2018-12-30T22:55:20.405Z,21.77
2018-12-30T22:57:49.800Z,18.53
2018-12-30T23:00:26.007Z,20.13
2018-12-30T23:02:55.513Z,20.20
2018-12-30T23:05:24.910Z,16.70
2018-12-30T23:07:54.330Z,12.83
2018-12-30T23:10:26.973Z,11.43
2018-12-30T23:12:56.351Z,18.23
2018-12-30T23:15:25.785Z,16.43
2018-12-30T23:17:55.232Z,12.23
2018-12-30T23:20:24.579Z,10.73
2018-12-30T23:22:54.052Z,13.60
2018-12-30T23:25:23.486Z,10.53
2018-12-30T23:27:52.917Z,9.40
2018-12-30T23:30:22.394Z,9.57
2018-12-30T23:32:51.871Z,10.17
2018-12-30T23:35:21.284Z,7.87
2018-12-30T23:37:50.617Z,5.57
2018-12-30T23:40:20.000Z,9.07
2018-12-30T23:42:49.334Z,6.63
2018-12-30T23:45:18.696Z,7.37
2018-12-30T23:47:48.080Z,8.23
2018-12-30T23:50:17.451Z,26.23
2018-12-30T23:52:46.862Z,18.37
2018-12-30T23:55:16.318Z,13.30
2018-12-30T23:57:45.684Z,10.80
